Time,TemperatureF,DewpointF,PressureIn,WindDirection,WindDirectionDegrees,WindSpeedMPH,WindSpeedGustMPH,Humidity,HourlyPrecipIn,Conditions,Clouds,dailyrainin,SoftwareType,DateUTC
2013-02-07 00:05:00,51.6,40.3,29.87,North,-999,-999.0,-999.0,65,-99.99,,,-99.99,meteohub,2013-02-07 06:05:00,
2013-02-07 00:11:00,51.4,40.1,29.87,North,-999,-999.0,-999.0,65,-99.99,,,-99.99,meteohub,2013-02-07 06:11:00,
2013-02-07 00:17:00,51.4,40.1,29.87,North,-999,-999.0,-999.0,65,-99.99,,,-99.99,meteohub,2013-02-07 06:17:00,
2013-02-07 00:22:00,51.3,40.3,29.87,North,-999,-999.0,-999.0,66,-99.99,,,-99.99,meteohub,2013-02-07 06:22:00,
2013-02-07 00:27:00,51.3,40.3,29.88,North,-999,-999.0,-999.0,66,-99.99,,,-99.99,meteohub,2013-02-07 06:27:00,
2013-02-07 00:32:00,51.3,40.3,29.87,North,-999,-999.0,-999.0,66,-99.99,,,-99.99,meteohub,2013-02-07 06:32:00,
2013-02-07 00:37:00,50.9,41.2,29.87,North,-999,-999.0,-999.0,69,-99.99,,,-99.99,meteohub,2013-02-07 06:37:00,
2013-02-07 00:42:00,50.7,41.0,29.87,North,-999,-999.0,-999.0,69,-99.99,,,-99.99,meteohub,2013-02-07 06:42:00,
2013-02-07 00:47:00,50.4,41.4,29.86,North,-999,-999.0,-999.0,71,-99.99,,,-99.99,meteohub,2013-02-07 06:47:00,
2013-02-07 00:52:00,50.0,42.1,29.86,North,-999,-999.0,-999.0,74,-99.99,,,-99.99,meteohub,2013-02-07 06:52:00,
2013-02-07 00:57:00,49.8,42.3,29.86,North,-999,-999.0,-999.0,75,-99.99,,,-99.99,meteohub,2013-02-07 06:57:00,
2013-02-07 01:02:00,49.6,42.1,29.86,North,-999,-999.0,-999.0,75,-99.99,,,-99.99,meteohub,2013-02-07 07:02:00,
2013-02-07 01:07:00,49.5,42.3,29.86,North,-999,-999.0,-999.0,76,-99.99,,,-99.99,meteohub,2013-02-07 07:07:00,
2013-02-07 01:12:00,49.5,42.3,29.86,North,-999,-999.0,-999.0,76,-99.99,,,-99.99,meteohub,2013-02-07 07:12:00,
2013-02-07 01:17:00,49.3,42.1,29.85,North,-999,-999.0,-999.0,76,-99.99,,,-99.99,meteohub,2013-02-07 07:17:00,
2013-02-07 01:22:00,49.1,42.3,29.85,North,-999,-999.0,-999.0,77,-99.99,,,-99.99,meteohub,2013-02-07 07:22:00,
2013-02-07 01:27:00,48.9,42.4,29.85,North,-999,-999.0,-999.0,78,-99.99,,,-99.99,meteohub,2013-02-07 07:27:00,
2013-02-07 01:32:00,48.9,42.4,29.84,North,-999,-999.0,-999.0,78,-99.99,,,-99.99,meteohub,2013-02-07 07:32:00,
2013-02-07 01:37:00,48.7,41.9,29.84,North,-999,-999.0,-999.0,77,-99.99,,,-99.99,meteohub,2013-02-07 07:37:00,
2013-02-07 01:42:00,48.6,41.7,29.83,North,-999,-999.0,-999.0,77,-99.99,,,-99.99,meteohub,2013-02-07 07:42:00,
2013-02-07 01:47:00,48.4,41.5,29.83,North,-999,-999.0,-999.0,77,-99.99,,,-99.99,meteohub,2013-02-07 07:47:00,
2013-02-07 01:52:00,48.4,41.5,29.83,North,-999,-999.0,-999.0,77,-99.99,,,-99.99,meteohub,2013-02-07 07:52:00,
2013-02-07 01:57:00,48.4,41.2,29.83,North,-999,-999.0,-999.0,76,-99.99,,,-99.99,meteohub,2013-02-07 07:57:00,
2013-02-07 02:02:00,48.4,41.2,29.83,North,-999,-999.0,-999.0,76,-99.99,,,-99.99,meteohub,2013-02-07 08:02:00,
2013-02-07 02:07:00,48.6,41.0,29.83,North,-999,-999.0,-999.0,75,-99.99,,,-99.99,meteohub,2013-02-07 08:07:00,
2013-02-07 02:12:00,48.2,41.0,29.83,North,-999,-999.0,-999.0,76,-99.99,,,-99.99,meteohub,2013-02-07 08:12:00,
2013-02-07 02:17:00,48.2,41.0,29.83,North,-999,-999.0,-999.0,76,-99.99,,,-99.99,meteohub,2013-02-07 08:17:00,
2013-02-07 02:22:00,48.2,41.0,29.83,North,-999,-999.0,-999.0,76,-99.99,,,-99.99,meteohub,2013-02-07 08:22:00,
2013-02-07 02:27:00,48.2,41.0,29.83,North,-999,-999.0,-999.0,76,-99.99,,,-99.99,meteohub,2013-02-07 08:27:00,
2013-02-07 02:32:00,48.2,41.0,29.83,North,-999,-999.0,-999.0,76,-99.99,,,-99.99,meteohub,2013-02-07 08:32:00,
2013-02-07 02:37:00,48.6,41.4,29.83,North,-999,-999.0,-999.0,76,-99.99,,,-99.99,meteohub,2013-02-07 08:37:00,
2013-02-07 02:42:00,48.7,41.2,29.83,North,-999,-999.0,-999.0,75,-99.99,,,-99.99,meteohub,2013-02-07 08:42:00,
2013-02-07 02:47:00,48.9,41.4,29.82,North,-999,-999.0,-999.0,75,-99.99,,,-99.99,meteohub,2013-02-07 08:47:00,
2013-02-07 02:52:00,48.9,41.4,29.83,North,-999,-999.0,-999.0,75,-99.99,,,-99.99,meteohub,2013-02-07 08:52:00,
2013-02-07 02:57:00,48.7,41.2,29.83,North,-999,-999.0,-999.0,75,-99.99,,,-99.99,meteohub,2013-02-07 08:57:00,
2013-02-07 03:02:00,48.9,41.4,29.82,North,-999,-999.0,-999.0,75,-99.99,,,-99.99,meteohub,2013-02-07 09:02:00,
2013-02-07 03:07:00,48.9,41.4,29.83,North,-999,-999.0,-999.0,75,-99.99,,,-99.99,meteohub,2013-02-07 09:07:00,
2013-02-07 03:12:00,48.9,41.4,29.83,North,-999,-999.0,-999.0,75,-99.99,,,-99.99,meteohub,2013-02-07 09:12:00,
2013-02-07 03:17:00,48.7,41.2,29.83,North,-999,-999.0,-999.0,75,-99.99,,,-99.99,meteohub,2013-02-07 09:17:00,
2013-02-07 03:22:00,48.7,41.5,29.83,North,-999,-999.0,-999.0,76,-99.99,,,-99.99,meteohub,2013-02-07 09:22:00,
2013-02-07 03:27:00,48.4,41.5,29.83,North,-999,-999.0,-999.0,77,-99.99,,,-99.99,meteohub,2013-02-07 09:27:00,
2013-02-07 03:32:00,48.4,41.5,29.83,North,-999,-999.0,-999.0,77,-99.99,,,-99.99,meteohub,2013-02-07 09:32:00,
2013-02-07 03:37:00,47.8,42.3,29.83,North,-999,-999.0,-999.0,81,-99.99,,,-99.99,meteohub,2013-02-07 09:37:00,
2013-02-07 03:42:00,47.5,41.9,29.83,North,-999,-999.0,-999.0,81,-99.99,,,-99.99,meteohub,2013-02-07 09:42:00,
2013-02-07 03:47:00,47.3,42.1,29.83,North,-999,-999.0,-999.0,82,-99.99,,,-99.99,meteohub,2013-02-07 09:47:00,
2013-02-07 03:52:00,46.9,42.1,29.83,North,-999,-999.0,-999.0,83,-99.99,,,-99.99,meteohub,2013-02-07 09:52:00,
2013-02-07 03:57:00,46.8,42.4,29.82,North,-999,-999.0,-999.0,85,-99.99,,,-99.99,meteohub,2013-02-07 09:57:00,
2013-02-07 04:02:00,46.4,42.8,29.82,North,-999,-999.0,-999.0,87,-99.99,,,-99.99,meteohub,2013-02-07 10:02:00,
2013-02-07 04:07:00,45.9,43.2,29.82,North,-999,-999.0,-999.0,90,-99.99,,,-99.99,meteohub,2013-02-07 10:07:00,
2013-02-07 04:12:00,45.9,43.3,29.81,North,-999,-999.0,-999.0,91,-99.99,,,-99.99,meteohub,2013-02-07 10:12:00,
2013-02-07 04:17:00,45.7,43.7,29.81,North,-999,-999.0,-999.0,93,-99.99,,,-99.99,meteohub,2013-02-07 10:17:00,
2013-02-07 04:22:00,45.5,43.5,29.82,North,-999,-999.0,-999.0,93,-99.99,,,-99.99,meteohub,2013-02-07 10:22:00,
2013-02-07 04:27:00,45.5,43.9,29.82,North,-999,-999.0,-999.0,94,-99.99,,,-99.99,meteohub,2013-02-07 10:27:00,
2013-02-07 04:32:00,45.5,43.9,29.81,North,-999,-999.0,-999.0,94,-99.99,,,-99.99,meteohub,2013-02-07 10:32:00,
2013-02-07 04:37:00,45.5,44.8,29.82,North,-999,-999.0,-999.0,97,-99.99,,,-99.99,meteohub,2013-02-07 10:37:00,
2013-02-07 04:43:00,45.5,45.0,29.82,North,-999,-999.0,-999.0,98,-99.99,,,-99.99,meteohub,2013-02-07 10:43:00,
2013-02-07 04:49:00,45.5,45.3,29.82,North,-999,-999.0,-999.0,99,-99.99,,,-99.99,meteohub,2013-02-07 10:49:00,
2013-02-07 04:55:00,45.7,45.5,29.82,North,-999,-999.0,-999.0,99,-99.99,,,-99.99,meteohub,2013-02-07 10:55:00,
2013-02-07 05:01:00,45.9,45.7,29.82,North,-999,-999.0,-999.0,99,-99.99,,,-99.99,meteohub,2013-02-07 11:01:00,
2013-02-07 05:07:00,46.0,45.9,29.82,North,-999,-999.0,-999.0,99,-99.99,,,-99.99,meteohub,2013-02-07 11:07:00,
2013-02-07 05:12:00,46.2,46.0,29.81,North,-999,-999.0,-999.0,99,-99.99,,,-99.99,meteohub,2013-02-07 11:12:00,
2013-02-07 05:17:00,46.2,46.0,29.82,North,-999,-999.0,-999.0,99,-99.99,,,-99.99,meteohub,2013-02-07 11:17:00,
2013-02-07 05:22:00,46.4,46.2,29.82,North,-999,-999.0,-999.0,99,-99.99,,,-99.99,meteohub,2013-02-07 11:22:00,
2013-02-07 05:27:00,46.4,46.2,29.82,North,-999,-999.0,-999.0,99,-99.99,,,-99.99,meteohub,2013-02-07 11:27:00,
2013-02-07 05:32:00,46.4,46.2,29.82,North,-999,-999.0,-999.0,99,-99.99,,,-99.99,meteohub,2013-02-07 11:32:00,
2013-02-07 05:37:00,46.8,46.6,29.82,North,-999,-999.0,-999.0,99,-99.99,,,-99.99,meteohub,2013-02-07 11:37:00,
2013-02-07 05:42:00,46.8,46.6,29.82,North,-999,-999.0,-999.0,99,-99.99,,,-99.99,meteohub,2013-02-07 11:42:00,
2013-02-07 05:47:00,46.8,46.6,29.82,North,-999,-999.0,-999.0,99,-99.99,,,-99.99,meteohub,2013-02-07 11:47:00,
2013-02-07 05:52:00,46.8,46.6,29.82,North,-999,-999.0,-999.0,99,-99.99,,,-99.99,meteohub,2013-02-07 11:52:00,
2013-02-07 05:57:00,46.8,46.6,29.82,North,-999,-999.0,-999.0,99,-99.99,,,-99.99,meteohub,2013-02-07 11:57:00,
2013-02-07 06:02:00,46.8,46.6,29.81,North,-999,-999.0,-999.0,99,-99.99,,,-99.99,meteohub,2013-02-07 12:02:00,
2013-02-07 06:07:00,46.8,46.6,29.82,North,-999,-999.0,-999.0,99,-99.99,,,-99.99,meteohub,2013-02-07 12:07:00,
2013-02-07 06:12:00,46.8,46.6,29.81,North,-999,-999.0,-999.0,99,-99.99,,,-99.99,meteohub,2013-02-07 12:12:00,
2013-02-07 06:17:00,46.8,46.6,29.82,North,-999,-999.0,-999.0,99,-99.99,,,-99.99,meteohub,2013-02-07 12:17:00,
2013-02-07 06:23:00,46.8,46.6,29.82,North,-999,-999.0,-999.0,99,-99.99,,,-99.99,meteohub,2013-02-07 12:23:00,
2013-02-07 06:29:00,46.8,46.6,29.81,North,-999,-999.0,-999.0,99,-99.99,,,-99.99,meteohub,2013-02-07 12:29:00,
2013-02-07 06:35:00,46.8,46.6,29.81,North,-999,-999.0,-999.0,99,-99.99,,,-99.99,meteohub,2013-02-07 12:35:00,
2013-02-07 06:41:00,46.6,46.4,29.81,North,-999,-999.0,-999.0,99,-99.99,,,-99.99,meteohub,2013-02-07 12:41:00,
2013-02-07 06:47:00,46.6,46.4,29.81,North,-999,-999.0,-999.0,99,-99.99,,,-99.99,meteohub,2013-02-07 12:47:00,
2013-02-07 06:52:00,46.6,46.4,29.81,North,-999,-999.0,-999.0,99,-99.99,,,-99.99,meteohub,2013-02-07 12:52:00,
2013-02-07 06:57:00,46.6,46.4,29.81,North,-999,-999.0,-999.0,99,-99.99,,,-99.99,meteohub,2013-02-07 12:57:00,
2013-02-07 07:02:00,46.6,46.4,29.81,North,-999,-999.0,-999.0,99,-99.99,,,-99.99,meteohub,2013-02-07 13:02:00,
2013-02-07 07:08:00,46.6,46.4,29.81,North,-999,-999.0,-999.0,99,-99.99,,,-99.99,meteohub,2013-02-07 13:08:00,
2013-02-07 07:14:00,46.6,46.4,29.81,North,-999,-999.0,-999.0,99,-99.99,,,-99.99,meteohub,2013-02-07 13:14:00,
2013-02-07 07:20:00,46.6,46.4,29.82,North,-999,-999.0,-999.0,99,-99.99,,,-99.99,meteohub,2013-02-07 13:20:00,
2013-02-07 07:26:00,46.6,46.4,29.82,North,-999,-999.0,-999.0,99,-99.99,,,-99.99,meteohub,2013-02-07 13:26:00,
2013-02-07 07:32:00,46.6,46.4,29.82,North,-999,-999.0,-999.0,99,-99.99,,,-99.99,meteohub,2013-02-07 13:32:00,
2013-02-07 07:37:00,46.6,46.4,29.82,North,-999,-999.0,-999.0,99,-99.99,,,-99.99,meteohub,2013-02-07 13:37:00,
2013-02-07 07:42:00,46.8,46.6,29.82,North,-999,-999.0,-999.0,99,-99.99,,,-99.99,meteohub,2013-02-07 13:42:00,
2013-02-07 07:47:00,46.8,46.6,29.83,North,-999,-999.0,-999.0,99,-99.99,,,-99.99,meteohub,2013-02-07 13:47:00,
2013-02-07 07:52:00,46.8,46.6,29.83,North,-999,-999.0,-999.0,99,-99.99,,,-99.99,meteohub,2013-02-07 13:52:00,
2013-02-07 07:59:00,46.9,46.8,29.84,North,-999,-999.0,-999.0,99,-99.99,,,-99.99,meteohub,2013-02-07 13:59:00,
2013-02-07 08:05:00,47.1,46.9,29.84,North,-999,-999.0,-999.0,99,-99.99,,,-99.99,meteohub,2013-02-07 14:05:00,
2013-02-07 08:11:00,47.1,46.9,29.85,North,-999,-999.0,-999.0,99,-99.99,,,-99.99,meteohub,2013-02-07 14:11:00,
2013-02-07 08:17:00,47.1,46.9,29.86,North,-999,-999.0,-999.0,99,-99.99,,,-99.99,meteohub,2013-02-07 14:17:00,
2013-02-07 08:22:00,47.1,46.9,29.86,North,-999,-999.0,-999.0,99,-99.99,,,-99.99,meteohub,2013-02-07 14:22:00,
2013-02-07 08:27:00,47.1,46.9,29.86,North,-999,-999.0,-999.0,99,-99.99,,,-99.99,meteohub,2013-02-07 14:27:00,
2013-02-07 08:32:00,47.1,46.9,29.86,North,-999,-999.0,-999.0,99,-99.99,,,-99.99,meteohub,2013-02-07 14:32:00,
2013-02-07 08:37:00,47.1,46.9,29.86,North,-999,-999.0,-999.0,99,-99.99,,,-99.99,meteohub,2013-02-07 14:37:00,
2013-02-07 08:42:00,47.3,47.1,29.86,North,-999,-999.0,-999.0,99,-99.99,,,-99.99,meteohub,2013-02-07 14:42:00,
2013-02-07 08:47:00,47.5,47.3,29.86,North,-999,-999.0,-999.0,99,-99.99,,,-99.99,meteohub,2013-02-07 14:47:00,
2013-02-07 08:52:00,47.5,47.3,29.86,North,-999,-999.0,-999.0,99,-99.99,,,-99.99,meteohub,2013-02-07 14:52:00,
2013-02-07 08:57:00,47.7,47.5,29.86,North,-999,-999.0,-999.0,99,-99.99,,,-99.99,meteohub,2013-02-07 14:57:00,
2013-02-07 09:02:00,47.7,47.5,29.86,North,-999,-999.0,-999.0,99,-99.99,,,-99.99,meteohub,2013-02-07 15:02:00,
2013-02-07 09:07:00,47.7,47.5,29.86,North,-999,-999.0,-999.0,99,-99.99,,,-99.99,meteohub,2013-02-07 15:07:00,
2013-02-07 09:12:00,47.8,47.7,29.86,North,-999,-999.0,-999.0,99,-99.99,,,-99.99,meteohub,2013-02-07 15:12:00,
2013-02-07 09:17:00,47.8,47.7,29.86,North,-999,-999.0,-999.0,99,-99.99,,,-99.99,meteohub,2013-02-07 15:17:00,
2013-02-07 09:22:00,48.0,47.8,29.86,North,-999,-999.0,-999.0,99,-99.99,,,-99.99,meteohub,2013-02-07 15:22:00,
2013-02-07 09:27:00,48.2,48.0,29.86,North,-999,-999.0,-999.0,99,-99.99,,,-99.99,meteohub,2013-02-07 15:27:00,
2013-02-07 09:32:00,48.2,48.0,29.86,North,-999,-999.0,-999.0,99,-99.99,,,-99.99,meteohub,2013-02-07 15:32:00,
2013-02-07 09:37:00,48.2,48.0,29.87,North,-999,-999.0,-999.0,99,-99.99,,,-99.99,meteohub,2013-02-07 15:37:00,
2013-02-07 09:42:00,48.2,48.0,29.86,North,-999,-999.0,-999.0,99,-99.99,,,-99.99,meteohub,2013-02-07 15:42:00,
2013-02-07 09:47:00,48.2,48.0,29.87,North,-999,-999.0,-999.0,99,-99.99,,,-99.99,meteohub,2013-02-07 15:47:00,
2013-02-07 09:52:00,48.0,47.8,29.87,North,-999,-999.0,-999.0,99,-99.99,,,-99.99,meteohub,2013-02-07 15:52:00,
2013-02-07 09:57:00,48.0,47.8,29.87,North,-999,-999.0,-999.0,99,-99.99,,,-99.99,meteohub,2013-02-07 15:57:00,
2013-02-07 10:02:00,47.7,47.5,29.88,North,-999,-999.0,-999.0,99,-99.99,,,-99.99,meteohub,2013-02-07 16:02:00,
2013-02-07 10:07:00,46.9,46.8,29.88,North,-999,-999.0,-999.0,99,-99.99,,,-99.99,meteohub,2013-02-07 16:07:00,
2013-02-07 10:12:00,46.2,46.0,29.88,North,-999,-999.0,-999.0,99,-99.99,,,-99.99,meteohub,2013-02-07 16:12:00,
2013-02-07 10:17:00,45.5,45.3,29.88,North,-999,-999.0,-999.0,99,-99.99,,,-99.99,meteohub,2013-02-07 16:17:00,
2013-02-07 10:22:00,45.1,45.0,29.88,North,-999,-999.0,-999.0,99,-99.99,,,-99.99,meteohub,2013-02-07 16:22:00,
2013-02-07 10:27:00,45.0,44.8,29.88,North,-999,-999.0,-999.0,99,-99.99,,,-99.99,meteohub,2013-02-07 16:27:00,
2013-02-07 10:32:00,45.0,44.8,29.87,North,-999,-999.0,-999.0,99,-99.99,,,-99.99,meteohub,2013-02-07 16:32:00,
2013-02-07 10:37:00,45.0,44.8,29.87,North,-999,-999.0,-999.0,99,-99.99,,,-99.99,meteohub,2013-02-07 16:37:00,
2013-02-07 10:42:00,45.1,45.0,29.88,North,-999,-999.0,-999.0,99,-99.99,,,-99.99,meteohub,2013-02-07 16:42:00,
2013-02-07 10:47:00,45.1,45.0,29.88,North,-999,-999.0,-999.0,99,-99.99,,,-99.99,meteohub,2013-02-07 16:47:00,
2013-02-07 10:52:00,45.0,44.8,29.88,North,-999,-999.0,-999.0,99,-99.99,,,-99.99,meteohub,2013-02-07 16:52:00,
2013-02-07 10:57:00,45.1,45.0,29.88,North,-999,-999.0,-999.0,99,-99.99,,,-99.99,meteohub,2013-02-07 16:57:00,
2013-02-07 11:02:00,45.1,45.0,29.88,North,-999,-999.0,-999.0,99,-99.99,,,-99.99,meteohub,2013-02-07 17:02:00,
2013-02-07 11:07:00,44.8,44.6,29.89,North,-999,-999.0,-999.0,99,-99.99,,,-99.99,meteohub,2013-02-07 17:07:00,
2013-02-07 11:12:00,44.8,44.6,29.89,North,-999,-999.0,-999.0,99,-99.99,,,-99.99,meteohub,2013-02-07 17:12:00,
2013-02-07 11:17:00,44.4,44.2,29.90,North,-999,-999.0,-999.0,99,-99.99,,,-99.99,meteohub,2013-02-07 17:17:00,
2013-02-07 11:22:00,44.2,44.1,29.90,North,-999,-999.0,-999.0,99,-99.99,,,-99.99,meteohub,2013-02-07 17:22:00,
2013-02-07 11:27:00,44.1,43.9,29.90,North,-999,-999.0,-999.0,99,-99.99,,,-99.99,meteohub,2013-02-07 17:27:00,
2013-02-07 11:32:00,44.1,43.9,29.90,North,-999,-999.0,-999.0,99,-99.99,,,-99.99,meteohub,2013-02-07 17:32:00,
2013-02-07 11:37:00,43.7,43.5,29.90,North,-999,-999.0,-999.0,99,-99.99,,,-99.99,meteohub,2013-02-07 17:37:00,
2013-02-07 11:42:00,43.7,43.5,29.91,North,-999,-999.0,-999.0,99,-99.99,,,-99.99,meteohub,2013-02-07 17:42:00,
2013-02-07 11:49:00,43.7,43.2,29.90,North,-999,-999.0,-999.0,98,-99.99,,,-99.99,meteohub,2013-02-07 17:49:00,
2013-02-07 11:55:00,44.1,43.5,29.91,North,-999,-999.0,-999.0,98,-99.99,,,-99.99,meteohub,2013-02-07 17:55:00,
2013-02-07 12:01:00,44.2,43.5,29.91,North,-999,-999.0,-999.0,97,-99.99,,,-99.99,meteohub,2013-02-07 18:01:00,
2013-02-07 12:07:00,44.8,44.1,29.91,North,-999,-999.0,-999.0,97,-99.99,,,-99.99,meteohub,2013-02-07 18:07:00,
2013-02-07 12:12:00,45.0,43.9,29.91,North,-999,-999.0,-999.0,96,-99.99,,,-99.99,meteohub,2013-02-07 18:12:00,
2013-02-07 12:17:00,44.8,43.5,29.91,North,-999,-999.0,-999.0,95,-99.99,,,-99.99,meteohub,2013-02-07 18:17:00,
2013-02-07 12:22:00,44.8,43.2,29.91,North,-999,-999.0,-999.0,94,-99.99,,,-99.99,meteohub,2013-02-07 18:22:00,
2013-02-07 12:28:00,45.0,43.0,29.91,North,-999,-999.0,-999.0,93,-99.99,,,-99.99,meteohub,2013-02-07 18:28:00,
2013-02-07 12:34:00,45.3,43.7,29.90,North,-999,-999.0,-999.0,94,-99.99,,,-99.99,meteohub,2013-02-07 18:34:00,
2013-02-07 12:40:00,45.7,43.7,29.90,North,-999,-999.0,-999.0,93,-99.99,,,-99.99,meteohub,2013-02-07 18:40:00,
2013-02-07 12:46:00,45.9,43.7,29.89,North,-999,-999.0,-999.0,92,-99.99,,,-99.99,meteohub,2013-02-07 18:46:00,
2013-02-07 12:52:00,46.4,43.9,29.89,North,-999,-999.0,-999.0,91,-99.99,,,-99.99,meteohub,2013-02-07 18:52:00,
2013-02-07 12:57:00,46.9,44.2,29.89,North,-999,-999.0,-999.0,90,-99.99,,,-99.99,meteohub,2013-02-07 18:57:00,
2013-02-07 13:02:00,46.8,43.7,29.90,North,-999,-999.0,-999.0,89,-99.99,,,-99.99,meteohub,2013-02-07 19:02:00,
2013-02-07 13:07:00,46.2,43.5,29.90,North,-999,-999.0,-999.0,90,-99.99,,,-99.99,meteohub,2013-02-07 19:07:00,
2013-02-07 13:12:00,46.2,43.7,29.89,North,-999,-999.0,-999.0,91,-99.99,,,-99.99,meteohub,2013-02-07 19:12:00,
2013-02-07 13:17:00,46.6,44.1,29.90,North,-999,-999.0,-999.0,91,-99.99,,,-99.99,meteohub,2013-02-07 19:17:00,
2013-02-07 13:22:00,46.4,43.3,29.90,North,-999,-999.0,-999.0,89,-99.99,,,-99.99,meteohub,2013-02-07 19:22:00,
2013-02-07 13:28:00,46.9,43.5,29.89,North,-999,-999.0,-999.0,88,-99.99,,,-99.99,meteohub,2013-02-07 19:28:00,
2013-02-07 13:34:00,47.5,43.5,29.90,North,-999,-999.0,-999.0,86,-99.99,,,-99.99,meteohub,2013-02-07 19:34:00,
2013-02-07 13:40:00,47.7,43.7,29.90,North,-999,-999.0,-999.0,86,-99.99,,,-99.99,meteohub,2013-02-07 19:40:00,
2013-02-07 13:46:00,48.2,43.9,29.90,North,-999,-999.0,-999.0,85,-99.99,,,-99.99,meteohub,2013-02-07 19:46:00,
2013-02-07 13:52:00,48.0,43.7,29.90,North,-999,-999.0,-999.0,85,-99.99,,,-99.99,meteohub,2013-02-07 19:52:00,
2013-02-07 13:57:00,47.8,43.9,29.91,North,-999,-999.0,-999.0,86,-99.99,,,-99.99,meteohub,2013-02-07 19:57:00,
2013-02-07 14:02:00,47.8,43.2,29.91,North,-999,-999.0,-999.0,84,-99.99,,,-99.99,meteohub,2013-02-07 20:02:00,
2013-02-07 14:07:00,47.3,43.0,29.91,North,-999,-999.0,-999.0,85,-99.99,,,-99.99,meteohub,2013-02-07 20:07:00,
2013-02-07 14:12:00,47.3,43.0,29.91,North,-999,-999.0,-999.0,85,-99.99,,,-99.99,meteohub,2013-02-07 20:12:00,
2013-02-07 14:17:00,46.9,43.0,29.91,North,-999,-999.0,-999.0,86,-99.99,,,-99.99,meteohub,2013-02-07 20:17:00,
2013-02-07 14:22:00,46.8,42.8,29.91,North,-999,-999.0,-999.0,86,-99.99,,,-99.99,meteohub,2013-02-07 20:22:00,
2013-02-07 14:27:00,46.8,43.2,29.92,North,-999,-999.0,-999.0,87,-99.99,,,-99.99,meteohub,2013-02-07 20:27:00,
2013-02-07 14:32:00,46.8,43.2,29.92,North,-999,-999.0,-999.0,87,-99.99,,,-99.99,meteohub,2013-02-07 20:32:00,
2013-02-07 14:37:00,46.4,42.4,29.92,North,-999,-999.0,-999.0,86,-99.99,,,-99.99,meteohub,2013-02-07 20:37:00,
2013-02-07 14:42:00,46.2,42.3,29.92,North,-999,-999.0,-999.0,86,-99.99,,,-99.99,meteohub,2013-02-07 20:42:00,
2013-02-07 14:47:00,46.2,42.3,29.91,North,-999,-999.0,-999.0,86,-99.99,,,-99.99,meteohub,2013-02-07 20:47:00,
2013-02-07 14:52:00,46.6,42.6,29.91,North,-999,-999.0,-999.0,86,-99.99,,,-99.99,meteohub,2013-02-07 20:52:00,
2013-02-07 14:57:00,46.9,43.0,29.91,North,-999,-999.0,-999.0,86,-99.99,,,-99.99,meteohub,2013-02-07 20:57:00,
2013-02-07 15:02:00,47.5,42.8,29.91,North,-999,-999.0,-999.0,84,-99.99,,,-99.99,meteohub,2013-02-07 21:02:00,
2013-02-07 15:07:00,47.5,42.8,29.92,North,-999,-999.0,-999.0,84,-99.99,,,-99.99,meteohub,2013-02-07 21:07:00,
2013-02-07 15:12:00,47.8,43.2,29.92,North,-999,-999.0,-999.0,84,-99.99,,,-99.99,meteohub,2013-02-07 21:12:00,
2013-02-07 15:17:00,48.6,43.7,29.92,North,-999,-999.0,-999.0,83,-99.99,,,-99.99,meteohub,2013-02-07 21:17:00,
2013-02-07 15:22:00,48.9,43.3,29.92,North,-999,-999.0,-999.0,81,-99.99,,,-99.99,meteohub,2013-02-07 21:22:00,
2013-02-07 15:27:00,49.1,43.9,29.92,North,-999,-999.0,-999.0,82,-99.99,,,-99.99,meteohub,2013-02-07 21:27:00,
2013-02-07 15:32:00,49.1,43.9,29.93,North,-999,-999.0,-999.0,82,-99.99,,,-99.99,meteohub,2013-02-07 21:32:00,
2013-02-07 15:37:00,48.6,42.3,29.92,North,-999,-999.0,-999.0,79,-99.99,,,-99.99,meteohub,2013-02-07 21:37:00,
2013-02-07 15:42:00,47.8,41.7,29.93,North,-999,-999.0,-999.0,79,-99.99,,,-99.99,meteohub,2013-02-07 21:42:00,
2013-02-07 15:47:00,47.5,41.4,29.93,North,-999,-999.0,-999.0,79,-99.99,,,-99.99,meteohub,2013-02-07 21:47:00,
2013-02-07 15:52:00,46.9,40.8,29.93,North,-999,-999.0,-999.0,79,-99.99,,,-99.99,meteohub,2013-02-07 21:52:00,
2013-02-07 15:57:00,47.1,41.0,29.94,North,-999,-999.0,-999.0,79,-99.99,,,-99.99,meteohub,2013-02-07 21:57:00,
2013-02-07 16:02:00,47.3,41.2,29.94,North,-999,-999.0,-999.0,79,-99.99,,,-99.99,meteohub,2013-02-07 22:02:00,
2013-02-07 16:08:00,47.1,40.3,29.94,North,-999,-999.0,-999.0,77,-99.99,,,-99.99,meteohub,2013-02-07 22:08:00,
2013-02-07 16:14:00,46.8,40.3,29.94,North,-999,-999.0,-999.0,78,-99.99,,,-99.99,meteohub,2013-02-07 22:14:00,
2013-02-07 16:21:00,46.4,40.3,29.94,North,-999,-999.0,-999.0,79,-99.99,,,-99.99,meteohub,2013-02-07 22:21:00,
2013-02-07 16:27:00,46.2,39.7,29.94,North,-999,-999.0,-999.0,78,-99.99,,,-99.99,meteohub,2013-02-07 22:27:00,
2013-02-07 16:32:00,46.2,39.7,29.95,North,-999,-999.0,-999.0,78,-99.99,,,-99.99,meteohub,2013-02-07 22:32:00,
2013-02-07 16:37:00,46.0,39.6,29.95,North,-999,-999.0,-999.0,78,-99.99,,,-99.99,meteohub,2013-02-07 22:37:00,
2013-02-07 16:42:00,45.9,39.4,29.95,North,-999,-999.0,-999.0,78,-99.99,,,-99.99,meteohub,2013-02-07 22:42:00,
2013-02-07 16:47:00,45.9,39.4,29.96,North,-999,-999.0,-999.0,78,-99.99,,,-99.99,meteohub,2013-02-07 22:47:00,
2013-02-07 16:52:00,45.7,38.8,29.96,North,-999,-999.0,-999.0,77,-99.99,,,-99.99,meteohub,2013-02-07 22:52:00,
2013-02-07 16:57:00,45.5,38.7,29.96,North,-999,-999.0,-999.0,77,-99.99,,,-99.99,meteohub,2013-02-07 22:57:00,
2013-02-07 17:02:00,45.3,38.5,29.97,North,-999,-999.0,-999.0,77,-99.99,,,-99.99,meteohub,2013-02-07 23:02:00,
2013-02-07 17:07:00,45.1,38.3,29.97,North,-999,-999.0,-999.0,77,-99.99,,,-99.99,meteohub,2013-02-07 23:07:00,
2013-02-07 17:12:00,45.0,38.5,29.97,North,-999,-999.0,-999.0,78,-99.99,,,-99.99,meteohub,2013-02-07 23:12:00,
2013-02-07 17:17:00,44.6,38.1,29.97,North,-999,-999.0,-999.0,78,-99.99,,,-99.99,meteohub,2013-02-07 23:17:00,
2013-02-07 17:22:00,44.6,38.1,29.98,North,-999,-999.0,-999.0,78,-99.99,,,-99.99,meteohub,2013-02-07 23:22:00,
2013-02-07 17:27:00,44.2,37.8,29.98,North,-999,-999.0,-999.0,78,-99.99,,,-99.99,meteohub,2013-02-07 23:27:00,
2013-02-07 17:32:00,44.2,37.8,29.98,North,-999,-999.0,-999.0,78,-99.99,,,-99.99,meteohub,2013-02-07 23:32:00,
2013-02-07 17:37:00,43.5,37.0,29.99,North,-999,-999.0,-999.0,78,-99.99,,,-99.99,meteohub,2013-02-07 23:37:00,
2013-02-07 17:42:00,43.2,37.0,29.99,North,-999,-999.0,-999.0,79,-99.99,,,-99.99,meteohub,2013-02-07 23:42:00,
2013-02-07 17:47:00,43.0,36.9,29.98,North,-999,-999.0,-999.0,79,-99.99,,,-99.99,meteohub,2013-02-07 23:47:00,
2013-02-07 17:52:00,42.6,36.9,29.99,North,-999,-999.0,-999.0,80,-99.99,,,-99.99,meteohub,2013-02-07 23:52:00,
2013-02-07 17:57:00,42.3,36.9,29.99,North,-999,-999.0,-999.0,81,-99.99,,,-99.99,meteohub,2013-02-07 23:57:00,
2013-02-07 18:02:00,42.1,37.0,29.99,North,-999,-999.0,-999.0,82,-99.99,,,-99.99,meteohub,2013-02-08 00:02:00,
2013-02-07 18:07:00,41.7,36.7,30.00,North,-999,-999.0,-999.0,82,-99.99,,,-99.99,meteohub,2013-02-08 00:07:00,
2013-02-07 18:12:00,41.4,36.5,30.00,North,-999,-999.0,-999.0,83,-99.99,,,-99.99,meteohub,2013-02-08 00:12:00,
2013-02-07 18:17:00,41.2,36.7,30.00,North,-999,-999.0,-999.0,84,-99.99,,,-99.99,meteohub,2013-02-08 00:17:00,
2013-02-07 18:22:00,40.8,36.3,30.01,North,-999,-999.0,-999.0,84,-99.99,,,-99.99,meteohub,2013-02-08 00:22:00,
2013-02-07 18:27:00,40.6,36.5,30.01,North,-999,-999.0,-999.0,85,-99.99,,,-99.99,meteohub,2013-02-08 00:27:00,
2013-02-07 18:32:00,40.6,36.5,30.01,North,-999,-999.0,-999.0,85,-99.99,,,-99.99,meteohub,2013-02-08 00:32:00,
2013-02-07 18:37:00,40.3,36.1,30.01,North,-999,-999.0,-999.0,85,-99.99,,,-99.99,meteohub,2013-02-08 00:37:00,
2013-02-07 18:42:00,40.1,36.3,30.02,North,-999,-999.0,-999.0,86,-99.99,,,-99.99,meteohub,2013-02-08 00:42:00,
2013-02-07 18:47:00,39.9,36.1,30.02,North,-999,-999.0,-999.0,86,-99.99,,,-99.99,meteohub,2013-02-08 00:47:00,
2013-02-07 18:52:00,39.9,36.1,30.02,North,-999,-999.0,-999.0,86,-99.99,,,-99.99,meteohub,2013-02-08 00:52:00,
2013-02-07 18:57:00,39.9,36.1,30.02,North,-999,-999.0,-999.0,86,-99.99,,,-99.99,meteohub,2013-02-08 00:57:00,
2013-02-07 19:02:00,39.7,36.0,30.03,North,-999,-999.0,-999.0,86,-99.99,,,-99.99,meteohub,2013-02-08 01:02:00,
2013-02-07 19:07:00,39.6,35.8,30.03,North,-999,-999.0,-999.0,86,-99.99,,,-99.99,meteohub,2013-02-08 01:07:00,
2013-02-07 19:12:00,39.4,35.8,30.03,North,-999,-999.0,-999.0,87,-99.99,,,-99.99,meteohub,2013-02-08 01:12:00,
2013-02-07 19:17:00,39.2,35.6,30.03,North,-999,-999.0,-999.0,87,-99.99,,,-99.99,meteohub,2013-02-08 01:17:00,
2013-02-07 19:22:00,39.0,35.8,30.03,North,-999,-999.0,-999.0,88,-99.99,,,-99.99,meteohub,2013-02-08 01:22:00,
2013-02-07 19:27:00,38.8,35.6,30.04,North,-999,-999.0,-999.0,88,-99.99,,,-99.99,meteohub,2013-02-08 01:27:00,
2013-02-07 19:32:00,38.8,35.6,30.04,North,-999,-999.0,-999.0,88,-99.99,,,-99.99,meteohub,2013-02-08 01:32:00,
2013-02-07 19:37:00,38.5,35.2,30.04,North,-999,-999.0,-999.0,88,-99.99,,,-99.99,meteohub,2013-02-08 01:37:00,
2013-02-07 19:42:00,38.1,34.9,30.04,North,-999,-999.0,-999.0,88,-99.99,,,-99.99,meteohub,2013-02-08 01:42:00,
2013-02-07 19:47:00,37.8,34.5,30.04,North,-999,-999.0,-999.0,88,-99.99,,,-99.99,meteohub,2013-02-08 01:47:00,
2013-02-07 19:52:00,37.6,34.3,30.04,North,-999,-999.0,-999.0,88,-99.99,,,-99.99,meteohub,2013-02-08 01:52:00,
2013-02-07 19:57:00,37.2,34.0,30.05,North,-999,-999.0,-999.0,88,-99.99,,,-99.99,meteohub,2013-02-08 01:57:00,
2013-02-07 20:02:00,36.9,34.0,30.05,North,-999,-999.0,-999.0,89,-99.99,,,-99.99,meteohub,2013-02-08 02:02:00,
2013-02-07 20:07:00,36.7,33.8,30.05,North,-999,-999.0,-999.0,89,-99.99,,,-99.99,meteohub,2013-02-08 02:07:00,
2013-02-07 20:12:00,36.7,33.8,30.05,North,-999,-999.0,-999.0,89,-99.99,,,-99.99,meteohub,2013-02-08 02:12:00,
2013-02-07 20:17:00,36.5,33.6,30.05,North,-999,-999.0,-999.0,89,-99.99,,,-99.99,meteohub,2013-02-08 02:17:00,
2013-02-07 20:22:00,36.1,32.9,30.06,North,-999,-999.0,-999.0,88,-99.99,,,-99.99,meteohub,2013-02-08 02:22:00,
2013-02-07 20:27:00,35.8,32.5,30.06,North,-999,-999.0,-999.0,88,-99.99,,,-99.99,meteohub,2013-02-08 02:27:00,
2013-02-07 20:32:00,35.8,32.5,30.07,North,-999,-999.0,-999.0,88,-99.99,,,-99.99,meteohub,2013-02-08 02:32:00,
2013-02-07 20:37:00,35.1,32.2,30.07,North,-999,-999.0,-999.0,89,-99.99,,,-99.99,meteohub,2013-02-08 02:37:00,
2013-02-07 20:42:00,34.9,32.0,30.07,North,-999,-999.0,-999.0,89,-99.99,,,-99.99,meteohub,2013-02-08 02:42:00,
2013-02-07 20:47:00,34.5,31.6,30.08,North,-999,-999.0,-999.0,89,-99.99,,,-99.99,meteohub,2013-02-08 02:47:00,
2013-02-07 20:52:00,34.2,31.3,30.08,North,-999,-999.0,-999.0,89,-99.99,,,-99.99,meteohub,2013-02-08 02:52:00,
2013-02-07 20:57:00,34.0,31.1,30.08,North,-999,-999.0,-999.0,89,-99.99,,,-99.99,meteohub,2013-02-08 02:57:00,
2013-02-07 21:02:00,33.8,31.1,30.08,North,-999,-999.0,-999.0,90,-99.99,,,-99.99,meteohub,2013-02-08 03:02:00,
2013-02-07 21:07:00,33.6,30.9,30.08,North,-999,-999.0,-999.0,90,-99.99,,,-99.99,meteohub,2013-02-08 03:07:00,
2013-02-07 21:13:00,33.4,30.7,30.09,North,-999,-999.0,-999.0,90,-99.99,,,-99.99,meteohub,2013-02-08 03:13:00,
2013-02-07 21:19:00,33.4,30.7,30.09,North,-999,-999.0,-999.0,90,-99.99,,,-99.99,meteohub,2013-02-08 03:19:00,
2013-02-07 21:26:00,33.3,30.6,30.10,North,-999,-999.0,-999.0,90,-99.99,,,-99.99,meteohub,2013-02-08 03:26:00,
2013-02-07 21:32:00,33.3,30.6,30.09,North,-999,-999.0,-999.0,90,-99.99,,,-99.99,meteohub,2013-02-08 03:32:00,
2013-02-07 21:37:00,33.1,30.2,30.09,North,-999,-999.0,-999.0,89,-99.99,,,-99.99,meteohub,2013-02-08 03:37:00,
2013-02-07 21:42:00,33.1,30.2,30.09,North,-999,-999.0,-999.0,89,-99.99,,,-99.99,meteohub,2013-02-08 03:42:00,
2013-02-07 21:47:00,32.9,30.0,30.09,North,-999,-999.0,-999.0,89,-99.99,,,-99.99,meteohub,2013-02-08 03:47:00,
2013-02-07 21:52:00,32.9,30.0,30.09,North,-999,-999.0,-999.0,89,-99.99,,,-99.99,meteohub,2013-02-08 03:52:00,
2013-02-07 21:57:00,32.9,30.0,30.10,North,-999,-999.0,-999.0,89,-99.99,,,-99.99,meteohub,2013-02-08 03:57:00,
2013-02-07 22:02:00,32.9,30.4,30.10,North,-999,-999.0,-999.0,90,-99.99,,,-99.99,meteohub,2013-02-08 04:02:00,
2013-02-07 22:08:00,32.9,30.0,30.10,North,-999,-999.0,-999.0,89,-99.99,,,-99.99,meteohub,2013-02-08 04:08:00,
2013-02-07 22:14:00,32.9,30.0,30.10,North,-999,-999.0,-999.0,89,-99.99,,,-99.99,meteohub,2013-02-08 04:14:00,
2013-02-07 22:20:00,32.9,30.0,30.11,North,-999,-999.0,-999.0,89,-99.99,,,-99.99,meteohub,2013-02-08 04:20:00,
2013-02-07 22:26:00,32.9,30.0,30.11,North,-999,-999.0,-999.0,89,-99.99,,,-99.99,meteohub,2013-02-08 04:26:00,
2013-02-07 22:32:00,32.9,30.0,30.12,North,-999,-999.0,-999.0,89,-99.99,,,-99.99,meteohub,2013-02-08 04:32:00,
2013-02-07 22:37:00,32.9,30.0,30.12,North,-999,-999.0,-999.0,89,-99.99,,,-99.99,meteohub,2013-02-08 04:37:00,
2013-02-07 22:42:00,32.7,29.8,30.12,North,-999,-999.0,-999.0,89,-99.99,,,-99.99,meteohub,2013-02-08 04:42:00,
2013-02-07 22:47:00,32.7,29.8,30.12,North,-999,-999.0,-999.0,89,-99.99,,,-99.99,meteohub,2013-02-08 04:47:00,
2013-02-07 22:52:00,32.7,29.8,30.12,North,-999,-999.0,-999.0,89,-99.99,,,-99.99,meteohub,2013-02-08 04:52:00,
2013-02-07 22:57:00,32.7,30.2,30.12,North,-999,-999.0,-999.0,90,-99.99,,,-99.99,meteohub,2013-02-08 04:57:00,
2013-02-07 23:02:00,32.7,30.2,30.12,North,-999,-999.0,-999.0,90,-99.99,,,-99.99,meteohub,2013-02-08 05:02:00,
2013-02-07 23:03:00,32.7,30.2,30.12,North,-999,-999.0,-999.0,90,-99.99,,,-99.99,meteohub,2013-02-08 05:03:00,
2013-02-07 23:09:00,32.7,30.2,30.12,North,-999,-999.0,-999.0,90,-99.99,,,-99.99,meteohub,2013-02-08 05:09:00,
2013-02-07 23:12:00,32.7,29.8,30.12,North,-999,-999.0,-999.0,89,-99.99,,,-99.99,meteohub,2013-02-08 05:12:00,
2013-02-07 23:17:00,32.4,28.9,30.13,North,-999,-999.0,-999.0,87,-99.99,,,-99.99,meteohub,2013-02-08 05:17:00,
2013-02-07 23:24:00,32.0,28.6,30.13,North,-999,-999.0,-999.0,87,-99.99,,,-99.99,meteohub,2013-02-08 05:24:00,
2013-02-07 23:30:00,32.0,28.9,30.13,North,-999,-999.0,-999.0,88,-99.99,,,-99.99,meteohub,2013-02-08 05:30:00,
2013-02-07 23:36:00,31.8,28.9,30.14,North,-999,-999.0,-999.0,89,-99.99,,,-99.99,meteohub,2013-02-08 05:36:00,
2013-02-07 23:42:00,31.8,28.9,30.13,North,-999,-999.0,-999.0,89,-99.99,,,-99.99,meteohub,2013-02-08 05:42:00,
2013-02-07 23:47:00,31.8,28.9,30.13,North,-999,-999.0,-999.0,89,-99.99,,,-99.99,meteohub,2013-02-08 05:47:00,
2013-02-07 23:52:00,31.8,28.9,30.14,North,-999,-999.0,-999.0,89,-99.99,,,-99.99,meteohub,2013-02-08 05:52:00,
2013-02-07 23:57:00,31.6,28.8,30.14,North,-999,-999.0,-999.0,89,-99.99,,,-99.99,meteohub,2013-02-08 05:57:00,